AAL1958 SBGL-SBSP
Flight info
| Callsign | AAL1958 |
|---|---|
| Flight time | N/A |
| Altitude | 36000 |
| Route | ORIA1A NAXOP IBDAL OGTA2A |
| Aircraft | B738/M-VGDW/C |
Departure
| Time | 2026-04-29 23:19 |
|---|---|
| Airport | Rio Galeão – Tom Jobim International Airport (SBGL) |
Arrival
| Time | N/A |
|---|---|
| Airport | Congonhas–Deputado Freitas Nobre Airport (SBSP) |
| Time | Latitude | Longitude | Altitude | Speed | Heading |
|---|---|---|---|---|---|
| 2026-04-29 23:03 | -22.81038 | -43.25432 | 33 ft | 0 kts | 91° |
| 2026-04-29 23:13 | -22.81038 | -43.25431 | 33 ft | 0 kts | 91° |
| 2026-04-29 23:13 | -22.81031 | -43.25416 | 33 ft | 7 kts | 43° |
| 2026-04-29 23:13 | -22.80974 | -43.25436 | 33 ft | 10 kts | 315° |
| 2026-04-29 23:14 | -22.80926 | -43.25503 | 33 ft | 14 kts | 306° |
| 2026-04-29 23:14 | -22.80852 | -43.25576 | 33 ft | 17 kts | 0° |
| 2026-04-29 23:14 | -22.80695 | -43.25491 | 33 ft | 36 kts | 33° |
| 2026-04-29 23:14 | -22.80528 | -43.25346 | 33 ft | 23 kts | 55° |
| 2026-04-29 23:15 | -22.80460 | -43.25186 | 33 ft | 22 kts | 66° |
| 2026-04-29 23:15 | -22.80424 | -43.25080 | 33 ft | 22 kts | 71° |
| 2026-04-29 23:15 | -22.80365 | -43.24857 | 33 ft | 22 kts | 78° |
| 2026-04-29 23:15 | -22.80313 | -43.24665 | 33 ft | 30 kts | 71° |
| 2026-04-29 23:16 | -22.80174 | -43.24473 | 33 ft | 37 kts | 55° |
| 2026-04-29 23:16 | -22.80075 | -43.24184 | 33 ft | 45 kts | 79° |
| 2026-04-29 23:16 | -22.79989 | -43.23823 | 33 ft | 52 kts | 74° |
| 2026-04-29 23:16 | -22.79890 | -43.23445 | 33 ft | 48 kts | 76° |
| 2026-04-29 23:17 | -22.79813 | -43.23136 | 33 ft | 47 kts | 76° |
| 2026-04-29 23:17 | -22.79730 | -43.22825 | 33 ft | 36 kts | 72° |
| 2026-04-29 23:17 | -22.79669 | -43.22617 | 33 ft | 25 kts | 69° |
| 2026-04-29 23:17 | -22.79605 | -43.22342 | 33 ft | 49 kts | 75° |
| 2026-04-29 23:18 | -22.79530 | -43.22069 | 33 ft | 26 kts | 73° |
| 2026-04-29 23:18 | -22.79444 | -43.21884 | 33 ft | 24 kts | 39° |
| 2026-04-29 23:18 | -22.79318 | -43.21795 | 33 ft | 24 kts | 16° |
| 2026-04-29 23:18 | -22.79295 | -43.22034 | 34 ft | 81 kts | 253° |
| 2026-04-29 23:19 | -22.79519 | -43.22951 | 136 ft | 160 kts | 253° |
| 2026-04-29 23:19 | -22.79829 | -43.24101 | 1197 ft | 171 kts | 250° |
| 2026-04-29 23:19 | -22.80036 | -43.25404 | 2255 ft | 188 kts | 266° |
| 2026-04-29 23:19 | -22.80020 | -43.26833 | 3384 ft | 201 kts | 271° |
| 2026-04-29 23:20 | -22.79793 | -43.28390 | 4182 ft | 232 kts | 283° |
| 2026-04-29 23:20 | -22.79221 | -43.30216 | 4654 ft | 273 kts | 290° |
| 2026-04-29 23:20 | -22.78541 | -43.32086 | 6197 ft | 265 kts | 286° |
| 2026-04-29 23:20 | -22.78300 | -43.33826 | 8039 ft | 235 kts | 264° |
| 2026-04-29 23:21 | -22.78849 | -43.35514 | 8844 ft | 253 kts | 236° |
| 2026-04-29 23:21 | -22.80056 | -43.36966 | 9635 ft | 273 kts | 219° |
| 2026-04-29 23:21 | -22.81782 | -43.37885 | 10527 ft | 289 kts | 191° |
| 2026-04-29 23:21 | -22.83788 | -43.37737 | 11551 ft | 300 kts | 162° |
| 2026-04-29 23:22 | -22.85739 | -43.37012 | 12614 ft | 304 kts | 167° |
| 2026-04-29 23:22 | -22.87861 | -43.36935 | 13439 ft | 314 kts | 192° |
| 2026-04-29 23:22 | -22.89925 | -43.37882 | 13845 ft | 336 kts | 217° |
| 2026-04-29 23:22 | -22.91472 | -43.39792 | 14484 ft | 348 kts | 241° |
| 2026-04-29 23:23 | -22.92291 | -43.42254 | 15243 ft | 357 kts | 260° |
| 2026-04-29 23:23 | -22.92567 | -43.44926 | 16180 ft | 360 kts | 263° |
| 2026-04-29 23:23 | -22.93014 | -43.47622 | 16940 ft | 368 kts | 255° |
| 2026-04-29 23:23 | -22.93865 | -43.50263 | 17863 ft | 371 kts | 248° |
| 2026-04-29 23:24 | -22.94927 | -43.52819 | 18669 ft | 376 kts | 245° |
| 2026-04-29 23:24 | -22.96041 | -43.55349 | 19466 ft | 379 kts | 245° |
| 2026-04-29 23:24 | -22.97226 | -43.57933 | 20240 ft | 383 kts | 244° |
| 2026-04-29 23:24 | -22.98437 | -43.60513 | 20998 ft | 386 kts | 244° |
| 2026-04-29 23:25 | -22.99661 | -43.63094 | 21711 ft | 390 kts | 244° |
| 2026-04-29 23:25 | -23.00913 | -43.65719 | 22416 ft | 393 kts | 244° |
| 2026-04-29 23:25 | -23.02161 | -43.68325 | 23089 ft | 396 kts | 244° |
| 2026-04-29 23:25 | -23.03437 | -43.70983 | 23753 ft | 398 kts | 244° |
| 2026-04-29 23:26 | -23.04727 | -43.73663 | 24392 ft | 401 kts | 244° |
| 2026-04-29 23:26 | -23.06006 | -43.76318 | 24981 ft | 404 kts | 244° |
| 2026-04-29 23:26 | -23.07316 | -43.79034 | 25560 ft | 407 kts | 244° |
| 2026-04-29 23:26 | -23.08626 | -43.81750 | 26118 ft | 410 kts | 244° |
| 2026-04-29 23:27 | -23.09959 | -43.84514 | 26656 ft | 413 kts | 244° |
| 2026-04-29 23:27 | -23.11303 | -43.87301 | 27178 ft | 416 kts | 244° |
| 2026-04-29 23:27 | -23.12646 | -43.90086 | 27676 ft | 419 kts | 244° |
| 2026-04-29 23:27 | -23.13985 | -43.92864 | 28154 ft | 421 kts | 244° |
| 2026-04-29 23:28 | -23.15352 | -43.95702 | 28624 ft | 424 kts | 244° |
| 2026-04-29 23:28 | -23.16724 | -43.98552 | 29074 ft | 427 kts | 244° |
| 2026-04-29 23:28 | -23.18083 | -44.01375 | 29508 ft | 429 kts | 244° |
| 2026-04-29 23:28 | -23.19472 | -44.04262 | 29928 ft | 431 kts | 244° |
| 2026-04-29 23:29 | -23.20857 | -44.07143 | 30335 ft | 434 kts | 244° |
| 2026-04-29 23:29 | -23.22255 | -44.10042 | 30729 ft | 436 kts | 243° |
| 2026-04-29 23:29 | -23.23878 | -44.12859 | 31107 ft | 441 kts | 237° |
| 2026-04-29 23:29 | -23.25675 | -44.15556 | 31541 ft | 442 kts | 236° |
| 2026-04-29 23:30 | -23.27474 | -44.18248 | 31974 ft | 442 kts | 237° |
| 2026-04-29 23:30 | -23.29272 | -44.20956 | 32423 ft | 442 kts | 237° |
| 2026-04-29 23:30 | -23.31068 | -44.23657 | 32884 ft | 441 kts | 237° |
| 2026-04-29 23:30 | -23.32868 | -44.26358 | 33361 ft | 440 kts | 237° |
| 2026-04-29 23:31 | -23.34558 | -44.29082 | 33825 ft | 437 kts | 241° |
| 2026-04-29 23:31 | -23.36106 | -44.31896 | 34298 ft | 435 kts | 242° |
| 2026-04-29 23:31 | -23.37640 | -44.34717 | 34746 ft | 434 kts | 242° |
| 2026-04-29 23:31 | -23.39192 | -44.37552 | 35199 ft | 433 kts | 242° |
| 2026-04-29 23:32 | -23.40714 | -44.40330 | 35623 ft | 432 kts | 242° |
| 2026-04-29 23:32 | -23.42241 | -44.43120 | 35983 ft | 430 kts | 242° |
| 2026-04-29 23:32 | -23.45302 | -44.48714 | 36058 ft | 426 kts | 242° |
| 2026-04-29 23:33 | -23.48304 | -44.54200 | 36089 ft | 421 kts | 242° |
| 2026-04-29 23:33 | -23.51284 | -44.59650 | 36119 ft | 421 kts | 242° |
| 2026-04-29 23:34 | -23.54291 | -44.65156 | 36150 ft | 422 kts | 242° |
| 2026-04-29 23:34 | -23.57215 | -44.70519 | 36156 ft | 422 kts | 242° |
| 2026-04-29 23:35 | -23.60189 | -44.75979 | 36155 ft | 421 kts | 242° |
| 2026-04-29 23:35 | -23.63169 | -44.81457 | 36155 ft | 421 kts | 242° |
| 2026-04-29 23:36 | -23.66145 | -44.86932 | 36155 ft | 421 kts | 242° |
| 2026-04-29 23:36 | -23.69117 | -44.92400 | 36155 ft | 421 kts | 242° |
| 2026-04-29 23:37 | -23.72124 | -44.97893 | 36155 ft | 421 kts | 242° |
| 2026-04-29 23:37 | -23.75129 | -45.03365 | 36153 ft | 419 kts | 244° |
| 2026-04-29 23:38 | -23.76188 | -45.06297 | 36105 ft | 413 kts | 260° |
| 2026-04-29 23:38 | -23.76365 | -45.09389 | 35807 ft | 411 kts | 275° |
| 2026-04-29 23:38 | -23.76160 | -45.12468 | 35154 ft | 415 kts | 273° |
| 2026-04-29 23:38 | -23.76266 | -45.15624 | 34392 ft | 414 kts | 265° |
| 2026-04-29 23:39 | -23.76746 | -45.18704 | 33642 ft | 412 kts | 261° |
| 2026-04-29 23:39 | -23.77054 | -45.21940 | 32849 ft | 407 kts | 271° |
| 2026-04-29 23:39 | -23.77181 | -45.25042 | 32103 ft | 413 kts | 266° |
| 2026-04-29 23:39 | -23.77595 | -45.28167 | 31353 ft | 420 kts | 262° |
| 2026-04-29 23:40 | -23.78149 | -45.31281 | 30607 ft | 424 kts | 261° |
| 2026-04-29 23:40 | -23.78724 | -45.34407 | 29850 ft | 418 kts | 261° |
| 2026-04-29 23:40 | -23.79314 | -45.37496 | 29093 ft | 413 kts | 260° |
| 2026-04-29 23:40 | -23.79811 | -45.40518 | 28344 ft | 405 kts | 266° |
| 2026-04-29 23:41 | -23.80003 | -45.43545 | 27596 ft | 399 kts | 269° |
| 2026-04-29 23:41 | -23.80127 | -45.46567 | 26837 ft | 394 kts | 269° |
| 2026-04-29 23:41 | -23.80268 | -45.49491 | 26095 ft | 390 kts | 269° |
| 2026-04-29 23:41 | -23.80416 | -45.52450 | 25336 ft | 386 kts | 269° |
| 2026-04-29 23:42 | -23.80560 | -45.55334 | 24589 ft | 382 kts | 269° |
| 2026-04-29 23:42 | -23.80704 | -45.58219 | 23834 ft | 378 kts | 269° |
| 2026-04-29 23:42 | -23.80846 | -45.61056 | 23085 ft | 375 kts | 269° |
| 2026-04-29 23:42 | -23.80986 | -45.63846 | 22342 ft | 372 kts | 269° |
| 2026-04-29 23:43 | -23.81126 | -45.66668 | 21585 ft | 369 kts | 269° |
| 2026-04-29 23:43 | -23.81263 | -45.69442 | 20835 ft | 366 kts | 269° |
| 2026-04-29 23:43 | -23.81400 | -45.72209 | 20081 ft | 363 kts | 269° |
| 2026-04-29 23:43 | -23.81534 | -45.74929 | 19335 ft | 361 kts | 269° |
| 2026-04-29 23:44 | -23.81666 | -45.77628 | 18590 ft | 359 kts | 269° |
| 2026-04-29 23:44 | -23.82055 | -45.85733 | 16322 ft | 352 kts | 269° |
| 2026-04-29 23:45 | -23.82185 | -45.88408 | 15564 ft | 350 kts | 269° |
| 2026-04-29 23:45 | -23.82312 | -45.91025 | 14818 ft | 347 kts | 269° |
| 2026-04-29 23:45 | -23.82439 | -45.93654 | 14064 ft | 345 kts | 269° |
| 2026-04-29 23:45 | -23.82563 | -45.96227 | 13322 ft | 343 kts | 269° |
| 2026-04-29 23:46 | -23.82689 | -45.98817 | 12570 ft | 341 kts | 268° |
| 2026-04-29 23:46 | -23.82812 | -46.01387 | 11820 ft | 339 kts | 268° |
| 2026-04-29 23:46 | -23.82936 | -46.03946 | 11068 ft | 338 kts | 269° |
| 2026-04-29 23:46 | -23.83057 | -46.06485 | 10320 ft | 337 kts | 269° |
| 2026-04-29 23:47 | -23.83178 | -46.09031 | 9567 ft | 335 kts | 269° |
| 2026-04-29 23:47 | -23.83299 | -46.11579 | 8815 ft | 334 kts | 268° |
| 2026-04-29 23:47 | -23.83412 | -46.14012 | 8867 ft | 307 kts | 268° |
| 2026-04-29 23:47 | -23.83519 | -46.16241 | 8959 ft | 284 kts | 269° |
| 2026-04-29 23:48 | -23.83614 | -46.18361 | 8857 ft | 279 kts | 269° |
| 2026-04-29 23:48 | -23.83710 | -46.20510 | 8759 ft | 282 kts | 269° |
| 2026-04-29 23:48 | -23.83808 | -46.22637 | 8659 ft | 283 kts | 269° |
| 2026-04-29 23:48 | -23.83909 | -46.24776 | 8561 ft | 283 kts | 268° |
| 2026-04-29 23:49 | -23.84010 | -46.26918 | 8461 ft | 283 kts | 268° |
| 2026-04-29 23:49 | -23.84110 | -46.29049 | 8365 ft | 282 kts | 268° |
| 2026-04-29 23:49 | -23.84211 | -46.31191 | 8373 ft | 281 kts | 268° |
| 2026-04-29 23:49 | -23.84311 | -46.33323 | 8386 ft | 283 kts | 268° |
| 2026-04-29 23:50 | -23.84413 | -46.35493 | 8385 ft | 283 kts | 268° |
| 2026-04-29 23:50 | -23.84513 | -46.37637 | 8385 ft | 283 kts | 268° |
| 2026-04-29 23:50 | -23.84713 | -46.41927 | 8385 ft | 283 kts | 268° |
| 2026-04-29 23:51 | -23.84813 | -46.44076 | 8385 ft | 283 kts | 268° |
| 2026-04-29 23:51 | -23.84912 | -46.46213 | 8385 ft | 283 kts | 268° |
| 2026-04-29 23:51 | -23.85008 | -46.48298 | 8377 ft | 270 kts | 268° |
| 2026-04-29 23:51 | -23.85099 | -46.50293 | 8379 ft | 254 kts | 269° |
| 2026-04-29 23:52 | -23.85184 | -46.52222 | 8387 ft | 253 kts | 269° |
| 2026-04-29 23:52 | -23.85269 | -46.54134 | 8386 ft | 255 kts | 269° |